Time;durP1;ratioP1;P1;durP2;ratioP2;P2;SDS_P1;SDS_P2;PMS_P1;PMS_P2;Temp;Humidity;BMP_temperature;BMP_pressure;BME280_temperature;BME280_humidity;BME280_pressure;Samples;Min_cycle;Max_cycle;Signal;HPM_P1;HPM_P2
2022/06/12 00:01:57;;;;;;;1.20;1.10;;;16.30;99.40;16.30;101165.00;;;;4988095;28;122829;-66
2022/06/12 00:04:25;;;;;;;2.25;1.95;;;16.30;99.60;16.30;101164.00;;;;5003394;28;121525;-66
2022/06/12 00:06:52;;;;;;;1.40;1.27;;;16.20;99.80;16.30;101168.00;;;;4989953;28;101583;-66
2022/06/12 00:09:19;;;;;;;2.10;2.00;;;16.20;99.90;16.30;101160.00;;;;5004926;28;93050;-66
2022/06/12 00:11:45;;;;;;;6.68;2.25;;;16.20;99.90;16.30;101164.00;;;;5004817;28;114309;-66
2022/06/12 00:14:15;;;;;;;1.55;1.45;;;16.20;99.90;16.20;101161.00;;;;4988111;28;122729;-66
2022/06/12 00:16:43;;;;;;;1.77;1.67;;;16.10;99.90;16.20;101159.00;;;;4971131;28;92929;-66
2022/06/12 00:19:10;;;;;;;2.40;1.88;;;16.10;99.90;16.10;101167.00;;;;4970586;28;92408;-66
2022/06/12 00:21:37;;;;;;;2.25;1.77;;;16.10;99.90;16.10;101163.00;;;;4970624;28;91865;-66
2022/06/12 00:24:11;;;;;;;1.92;1.23;;;16.00;99.90;16.10;101157.00;;;;4984491;28;92311;-66
2022/06/12 00:26:42;;;;;;;1.65;1.33;;;16.00;99.90;16.00;101162.00;;;;4989104;28;92879;-65
2022/06/12 00:29:18;;;;;;;2.35;2.15;;;16.00;99.90;16.00;101164.00;;;;4988961;28;92998;-66
2022/06/12 00:31:49;;;;;;;7.18;1.98;;;15.90;99.90;16.00;101167.00;;;;4992416;28;113657;-66
2022/06/12 00:34:18;;;;;;;2.40;1.90;;;15.90;99.90;15.90;101166.00;;;;4992344;28;92303;-65
2022/06/12 00:36:44;;;;;;;1.92;1.63;;;15.90;99.90;15.90;101164.00;;;;4992438;28;91925;-66
2022/06/12 00:39:11;;;;;;;2.50;1.83;;;15.80;99.90;15.90;101164.00;;;;4990019;28;105836;-66
2022/06/12 00:41:39;;;;;;;2.92;2.22;;;15.80;99.90;15.80;101168.00;;;;5008165;28;92777;-66
2022/06/12 00:44:06;;;;;;;2.33;1.60;;;15.80;99.90;15.80;101157.00;;;;4992703;28;92767;-66
2022/06/12 00:46:51;;;;;;;5.55;2.58;;;15.70;99.90;15.70;101156.00;;;;4975285;28;101342;-66
2022/06/12 00:49:29;;;;;;;4.30;2.35;;;15.70;99.90;15.70;101157.00;;;;4974961;28;92533;-65
2022/06/12 00:52:41;;;;;;;4.30;2.45;;;15.60;99.90;15.60;101165.00;;;;4997144;28;92431;-65
2022/06/12 00:55:24;;;;;;;6.78;2.60;;;15.60;99.90;15.60;101165.00;;;;4987249;28;93841;-67
2022/06/12 00:57:55;;;;;;;2.22;2.03;;;15.50;99.90;15.50;101155.00;;;;4971162;28;92384;-68
2022/06/12 01:00:22;;;;;;;2.60;2.40;;;15.60;99.90;15.50;101157.00;;;;4988269;28;92664;-67
2022/06/12 01:02:48;;;;;;;2.35;2.13;;;15.40;99.90;15.40;101155.00;;;;4991639;28;93335;-67
2022/06/12 01:08:12;;;;;;;4.20;2.67;;;15.30;99.90;15.30;101160.00;;;;4989560;28;92382;-67
2022/06/12 01:10:42;;;;;;;2.67;2.33;;;15.20;99.90;15.20;101146.00;;;;4992641;28;107764;-67
2022/06/12 01:13:46;;;;;;;5.72;2.33;;;15.20;99.90;15.20;101158.00;;;;4974662;28;93189;-67
2022/06/12 01:16:17;;;;;;;4.68;2.60;;;15.20;99.90;15.20;101157.00;;;;4998572;28;92685;-67
2022/06/12 01:18:54;;;;;;;3.78;2.67;;;15.10;99.90;15.10;101152.00;;;;4974390;28;102654;-67
2022/06/12 01:21:32;;;;;;;4.03;2.47;;;15.10;99.90;15.00;101152.00;;;;4973697;28;93133;-66
2022/06/12 01:24:43;;;;;;;3.47;1.95;;;15.00;99.90;15.00;101151.00;;;;4992803;28;92520;-67
2022/06/12 01:27:26;;;;;;;2.47;2.28;;;15.00;99.90;15.00;101142.00;;;;4954019;28;114768;-66
2022/06/12 01:30:09;;;;;;;5.87;2.67;;;14.90;99.90;14.90;101146.00;;;;4983328;28;98769;-66
2022/06/12 01:32:51;;;;;;;2.73;2.17;;;14.90;99.90;14.80;101137.00;;;;4971206;28;92069;-66
2022/06/12 01:35:47;;;;;;;2.85;2.65;;;14.80;99.90;14.80;101146.00;;;;4991332;28;92514;-65
2022/06/12 01:39:19;;;;;;;3.67;2.17;;;14.80;99.90;14.70;101135.00;;;;4992425;28;92344;-66
2022/06/12 01:41:59;;;;;;;1.65;1.50;;;14.70;99.90;14.70;101136.00;;;;4932671;28;96164;-66
2022/06/12 01:44:50;;;;;;;1.88;1.75;;;14.70;99.90;14.70;101149.00;;;;5007898;28;99812;-66
2022/06/12 01:47:44;;;;;;;2.80;2.38;;;14.70;99.90;14.60;101141.00;;;;4992032;28;93256;-66
2022/06/12 01:50:31;;;;;;;1.85;1.75;;;14.60;99.90;14.60;101144.00;;;;4958185;28;94612;-66
2022/06/12 01:53:30;;;;;;;1.92;1.73;;;14.60;99.90;14.60;101144.00;;;;4999506;28;103054;-65
2022/06/12 01:56:01;;;;;;;2.50;2.30;;;14.60;99.90;14.60;101152.00;;;;4999669;28;92579;-66
2022/06/12 01:58:55;;;;;;;5.37;2.13;;;14.50;99.90;14.60;101150.00;;;;5006833;28;92634;-66
2022/06/12 02:01:41;;;;;;;1.93;1.80;;;14.50;99.90;14.50;101152.00;;;;4992029;28;92398;-66
2022/06/12 02:04:21;;;;;;;2.10;1.97;;;14.50;99.90;14.40;101144.00;;;;4973822;28;93011;-66
2022/06/12 02:07:21;;;;;;;3.00;2.70;;;14.40;99.90;14.40;101147.00;;;;5007927;28;92026;-65
2022/06/12 02:10:01;;;;;;;2.43;1.90;;;14.40;99.90;14.30;101141.00;;;;4953951;28;116919;-66
2022/06/12 02:16:00;;;;;;;2.53;2.33;;;14.30;99.90;14.20;101142.00;;;;4989987;28;92343;-66
2022/06/12 02:18:33;;;;;;;2.90;2.30;;;14.30;99.90;14.20;101130.00;;;;5006088;28;93499;-65
2022/06/12 02:21:13;;;;;;;3.83;2.40;;;14.20;99.90;14.20;101128.00;;;;5006840;28;92633;-66
2022/06/12 02:23:48;;;;;;;4.13;2.53;;;14.20;99.90;14.20;101122.00;;;;5004192;28;113364;-65
2022/06/12 02:26:41;;;;;;;2.43;2.00;;;14.20;99.90;14.20;101128.00;;;;5005373;28;92785;-65
2022/06/12 02:29:40;;;;;;;2.70;2.50;;;14.10;99.90;14.10;101118.00;;;;5005611;28;92041;-66
2022/06/12 02:32:31;;;;;;;2.43;1.87;;;14.10;99.90;14.10;101110.00;;;;4973565;28;92644;-66
2022/06/12 02:35:06;;;;;;;2.50;2.30;;;14.10;99.90;14.00;101107.00;;;;4972426;28;104751;-65
2022/06/12 02:37:47;;;;;;;3.60;2.10;;;14.00;99.90;14.00;101112.00;;;;4972572;28;92259;-66
2022/06/12 02:40:38;;;;;;;2.87;2.67;;;14.00;99.90;13.90;101114.00;;;;4991054;28;97875;-66
2022/06/12 02:43:11;;;;;;;3.97;2.77;;;13.90;99.90;13.90;101102.00;;;;4988957;28;95349;-66
2022/06/12 02:46:03;;;;;;;4.13;2.63;;;13.90;99.90;13.80;101104.00;;;;4971651;28;110402;-66
2022/06/12 02:48:30;;;;;;;2.37;2.23;;;13.80;99.90;13.80;101110.00;;;;4972879;28;92784;-66
2022/06/12 02:51:23;;;;;;;3.20;2.23;;;13.80;99.90;13.80;101096.00;;;;4990971;28;108306;-65
2022/06/12 02:54:15;;;;;;;2.83;2.47;;;13.80;99.90;13.80;101102.00;;;;5003533;28;104527;-66
2022/06/12 02:57:15;;;;;;;2.40;2.20;;;13.80;99.90;13.70;101091.00;;;;4972103;28;115562;-65
2022/06/12 03:00:16;;;;;;;5.13;2.03;;;13.70;99.90;13.70;101099.00;;;;4973121;28;92806;-65
2022/06/12 03:02:59;;;;;;;2.70;2.00;;;13.70;99.90;13.70;101086.00;;;;5006444;28;92054;-67
2022/06/12 03:05:30;;;;;;;5.07;2.73;;;13.70;99.90;13.70;101090.00;;;;4991523;28;92485;-67
2022/06/12 03:08:07;;;;;;;3.33;2.70;;;13.70;99.90;13.70;101079.00;;;;4971251;28;114069;-67
2022/06/12 03:10:38;;;;;;;3.30;2.60;;;13.70;99.90;13.70;101091.00;;;;4972892;28;91997;-68
2022/06/12 03:13:08;;;;;;;3.47;2.93;;;13.70;99.90;13.70;101087.00;;;;4990362;28;101507;-67
2022/06/12 03:15:43;;;;;;;1.67;1.53;;;13.70;99.90;13.70;101094.00;;;;4955514;28;99860;-67
2022/06/12 03:18:14;;;;;;;3.90;2.30;;;14.10;99.90;13.80;101083.00;;;;4990034;28;92861;-67
2022/06/12 03:21:43;;;;;;;2.60;2.10;;;13.70;99.90;13.80;101096.00;;;;5006097;28;92421;-67
2022/06/12 03:24:28;;;;;;;4.67;2.23;;;13.80;99.90;13.80;101095.00;;;;4972693;28;92545;-67
2022/06/12 03:27:29;;;;;;;2.53;2.33;;;13.80;99.90;13.80;101090.00;;;;4971473;28;122111;-67
2022/06/12 03:30:21;;;;;;;4.93;3.37;;;13.80;99.90;13.80;101094.00;;;;4971340;28;113537;-67
2022/06/12 03:33:16;;;;;;;2.50;2.30;;;13.80;99.90;13.80;101095.00;;;;5006124;28;91384;-67
2022/06/12 03:35:55;;;;;;;4.80;3.10;;;13.80;99.90;13.80;101090.00;;;;4972976;28;92460;-67
2022/06/12 03:38:47;;;;;;;2.53;2.33;;;13.80;99.90;13.80;101095.00;;;;5005119;28;93101;-67
2022/06/12 03:41:35;;;;;;;2.67;2.10;;;13.80;99.90;13.80;101093.00;;;;4986836;28;93695;-67
2022/06/12 03:44:14;;;;;;;3.17;2.43;;;13.80;99.90;13.90;101103.00;;;;4990575;28;92758;-67
2022/06/12 03:46:44;;;;;;;2.70;2.50;;;13.80;99.90;14.00;101105.00;;;;4991066;28;92223;-68
2022/06/12 03:49:35;;;;;;;7.40;2.97;;;13.90;99.90;14.00;101105.00;;;;4971367;28;113818;-67
2022/06/12 03:52:12;;;;;;;3.00;2.17;;;13.90;99.90;14.10;101111.00;;;;4994815;28;92979;-67
2022/06/12 03:54:49;;;;;;;3.53;2.30;;;14.00;99.90;14.20;101109.00;;;;4996493;28;92432;-67
2022/06/12 04:00:19;;;;;;;3.37;2.00;;;14.20;99.90;14.40;101104.00;;;;4967041;28;91769;-67
2022/06/12 04:02:54;;;;;;;3.10;2.63;;;14.30;99.90;14.50;101109.00;;;;4989819;28;92133;-67
2022/06/12 04:05:30;;;;;;;4.33;2.13;;;14.40;99.90;14.60;101109.00;;;;4990610;28;92397;-67
2022/06/12 04:07:59;;;;;;;5.77;3.03;;;14.50;99.90;14.70;101109.00;;;;5004895;28;93666;-68
2022/06/12 04:10:34;;;;;;;3.20;2.73;;;14.60;99.90;14.80;101106.00;;;;4984918;28;113920;-67
2022/06/12 04:13:01;;;;;;;5.23;2.93;;;14.70;99.90;15.00;101110.00;;;;5003699;28;92972;-67
2022/06/12 04:15:35;;;;;;;4.77;2.13;;;14.80;99.90;15.10;101100.00;;;;5005128;28;92867;-67
2022/06/12 04:18:01;;;;;;;2.93;2.57;;;14.90;99.90;15.20;101108.00;;;;5005241;28;92506;-67
2022/06/12 04:20:56;;;;;;;2.50;2.17;;;15.10;99.90;15.30;101101.00;;;;5004633;28;108510;-67
2022/06/12 04:23:31;;;;;;;3.33;2.70;;;15.20;99.90;15.50;101107.00;;;;5004187;28;92730;-67
2022/06/12 04:26:23;;;;;;;3.83;2.50;;;15.30;99.90;15.60;101095.00;;;;4990475;28;93760;-67
2022/06/12 04:28:59;;;;;;;3.40;3.10;;;15.50;99.90;15.80;101105.00;;;;4963663;28;92115;-67
2022/06/12 04:31:27;;;;;;;3.58;2.38;;;15.70;99.90;16.00;101102.00;;;;5004308;28;92072;-67
2022/06/12 04:34:20;;;;;;;2.85;2.33;;;15.80;99.90;16.20;101103.00;;;;5004151;28;93467;-66
2022/06/12 04:36:51;;;;;;;2.97;2.45;;;16.00;99.90;16.40;101109.00;;;;4990926;28;91908;-67
2022/06/12 04:39:22;;;;;;;6.50;2.60;;;16.20;99.90;16.60;101104.00;;;;4989418;28;100516;-67
2022/06/12 04:41:52;;;;;;;3.58;2.45;;;16.40;99.90;16.80;101099.00;;;;4989932;28;93729;-67
2022/06/12 04:44:18;;;;;;;8.00;3.13;;;16.60;99.90;17.10;101093.00;;;;4988969;28;92497;-66
2022/06/12 04:46:47;;;;;;;2.85;2.25;;;16.80;99.90;17.30;101100.00;;;;4989694;28;102993;-65
2022/06/12 04:49:27;;;;;;;3.20;1.77;;;17.10;99.90;17.50;101093.00;;;;4988165;28;98853;-66
2022/06/12 04:51:57;;;;;;;6.03;2.25;;;17.30;99.90;17.70;101093.00;;;;5008504;28;91888;-65
2022/06/12 04:54:26;;;;;;;4.15;2.60;;;17.50;99.90;18.00;101095.00;;;;5008569;28;113365;-66
2022/06/12 04:56:52;;;;;;;3.92;2.00;;;17.70;99.90;18.20;101089.00;;;;4990854;28;92131;-66
2022/06/12 04:59:20;;;;;;;2.83;2.40;;;18.00;99.90;18.50;101080.00;;;;4987393;28;108211;-66
2022/06/12 05:01:48;;;;;;;2.80;1.83;;;18.20;99.90;18.80;101089.00;;;;4989433;28;92620;-65
2022/06/12 05:04:15;;;;;;;2.67;2.00;;;18.50;99.90;19.10;101094.00;;;;4988173;28;93342;-66
2022/06/12 05:06:42;;;;;;;2.22;1.30;;;18.80;99.90;19.30;101096.00;;;;4990985;28;92478;-67
2022/06/12 05:09:09;;;;;;;2.35;2.08;;;19.00;99.90;19.50;101082.00;;;;4988993;28;92542;-67
2022/06/12 05:11:35;;;;;;;2.45;2.22;;;19.20;99.90;19.70;101088.00;;;;4989081;28;94728;-66
2022/06/12 05:14:01;;;;;;;3.13;1.88;;;19.40;99.90;19.90;101084.00;;;;4989161;28;93232;-66
2022/06/12 05:16:39;;;;;;;2.45;1.98;;;19.60;99.90;20.00;101080.00;;;;4973991;28;91546;-66
2022/06/12 05:19:10;;;;;;;1.40;1.30;;;19.80;99.90;20.20;101084.00;;;;5007481;28;92440;-67
2022/06/12 05:21:35;;;;;;;1.50;1.40;;;20.00;99.90;20.50;101081.00;;;;4992063;28;113611;-67
2022/06/12 05:24:02;;;;;;;3.05;1.58;;;20.20;99.90;20.70;101076.00;;;;4990176;28;123252;-65
2022/06/12 05:26:30;;;;;;;1.83;1.38;;;20.40;99.90;20.90;101079.00;;;;4993598;28;91816;-65
2022/06/12 05:29:04;;;;;;;2.10;1.83;;;20.60;99.90;21.10;101086.00;;;;5006225;28;92096;-65
2022/06/12 05:31:30;;;;;;;1.63;1.42;;;20.80;99.90;21.30;101082.00;;;;4991875;28;110133;-65
2022/06/12 05:33:56;;;;;;;1.77;1.67;;;21.00;99.90;21.40;101072.00;;;;4991132;28;120249;-65
2022/06/12 05:36:23;;;;;;;1.83;1.50;;;21.10;99.90;21.50;101067.00;;;;4992362;28;110341;-65
2022/06/12 05:38:50;;;;;;;1.85;1.42;;;21.30;99.90;21.60;101067.00;;;;4992087;28;92045;-65
2022/06/12 05:41:21;;;;;;;3.85;2.10;;;21.40;99.50;21.70;101066.00;;;;4992441;28;101436;-65
2022/06/12 05:43:47;;;;;;;4.95;1.67;;;21.50;99.10;21.70;101078.00;;;;4991035;28;101514;-65
2022/06/12 05:46:18;;;;;;;3.13;1.55;;;21.50;98.60;21.70;101071.00;;;;4992388;28;110668;-65
2022/06/12 05:48:44;;;;;;;1.27;1.17;;;21.50;98.30;21.80;101077.00;;;;4991228;28;93297;-65
2022/06/12 05:51:17;;;;;;;1.45;1.35;;;21.60;98.10;21.90;101072.00;;;;4987317;28;94108;-66
2022/06/12 05:53:42;;;;;;;1.48;1.35;;;21.60;97.70;22.00;101067.00;;;;4996086;28;93744;-65
2022/06/12 05:56:15;;;;;;;1.45;1.35;;;21.70;97.30;22.10;101065.00;;;;4999685;28;110396;-65
2022/06/12 05:58:41;;;;;;;3.78;1.77;;;21.90;96.60;22.30;101059.00;;;;4995165;28;92334;-65
2022/06/12 06:01:11;;;;;;;1.38;1.27;;;22.00;95.70;22.50;101063.00;;;;5006580;28;113778;-65
2022/06/12 06:03:38;;;;;;;1.77;1.38;;;22.20;95.40;22.70;101054.00;;;;4978087;28;92524;-65
2022/06/12 06:06:07;;;;;;;1.52;1.02;;;22.40;94.80;23.00;101070.00;;;;5006783;28;107403;-65
2022/06/12 06:08:33;;;;;;;1.70;1.05;;;22.70;94.10;23.30;101066.00;;;;4982098;28;92739;-65
2022/06/12 06:10:59;;;;;;;1.10;0.98;;;22.90;92.80;23.50;101069.00;;;;5003694;28;111092;-65
2022/06/12 06:13:24;;;;;;;1.50;1.23;;;23.20;91.90;23.70;101065.00;;;;4997223;28;120354;-65
2022/06/12 06:15:50;;;;;;;2.15;1.13;;;23.40;91.40;23.90;101073.00;;;;5006585;28;109070;-65
2022/06/12 06:18:19;;;;;;;1.50;1.10;;;23.60;91.10;24.10;101070.00;;;;4984573;28;109193;-65
2022/06/12 06:20:45;;;;;;;1.20;1.10;;;23.80;90.70;24.30;101070.00;;;;5001623;28;105987;-65
2022/06/12 06:23:11;;;;;;;1.33;0.90;;;24.00;87.80;24.30;101070.00;;;;4996414;28;96915;-65
2022/06/12 06:25:38;;;;;;;1.45;0.80;;;24.10;84.10;24.30;101075.00;;;;5004766;28;93045;-65
2022/06/12 06:28:05;;;;;;;0.95;0.80;;;24.10;80.60;24.30;101075.00;;;;4995274;28;92467;-65
2022/06/12 06:30:32;;;;;;;0.60;0.60;;;24.10;76.90;24.20;101075.00;;;;4993555;28;93166;-65
2022/06/12 06:32:59;;;;;;;0.88;0.70;;;24.00;76.00;24.20;101070.00;;;;4994304;28;121962;-66
2022/06/12 06:35:25;;;;;;;1.15;0.70;;;24.00;75.60;24.20;101079.00;;;;5001706;28;92508;-66
2022/06/12 06:37:52;;;;;;;0.73;0.50;;;23.90;74.50;24.10;101073.00;;;;4990361;28;93188;-66
2022/06/12 06:40:20;;;;;;;1.52;0.80;;;23.90;74.10;24.10;101072.00;;;;5003785;28;92760;-66
2022/06/12 06:42:45;;;;;;;4.70;1.63;;;23.90;74.50;24.20;101070.00;;;;5001631;28;112151;-65
2022/06/12 06:47:58;;;;;;;0.60;0.60;;;23.90;72.70;24.20;101077.00;;;;4983147;28;92807;-65
2022/06/12 06:50:24;;;;;;;1.15;0.80;;;23.90;73.30;24.30;101087.00;;;;5001983;28;121996;-65
2022/06/12 06:52:50;;;;;;;1.38;1.15;;;24.00;73.40;24.40;101103.00;;;;5004106;28;115410;-65
2022/06/12 06:55:17;;;;;;;2.10;1.52;;;24.10;74.50;24.40;101099.00;;;;4993530;28;92253;-67
2022/06/12 06:57:46;;;;;;;2.63;1.52;;;24.10;75.90;24.40;101093.00;;;;4987585;28;93578;-67
2022/06/12 07:00:23;;;;;;;1.85;1.52;;;24.10;76.80;24.50;101095.00;;;;4995464;28;92772;-67
2022/06/12 07:02:50;;;;;;;1.10;1.00;;;24.20;77.60;24.60;101091.00;;;;4986295;28;93746;-66
2022/06/12 07:05:17;;;;;;;2.63;1.38;;;24.30;78.30;24.60;101088.00;;;;4997871;28;92477;-66
2022/06/12 07:07:43;;;;;;;2.13;1.55;;;24.30;78.30;24.70;101089.00;;;;5005904;28;92572;-67
2022/06/12 07:10:16;;;;;;;3.53;1.42;;;24.40;78.20;24.70;101080.00;;;;4997417;28;121726;-66
2022/06/12 07:12:42;;;;;;;2.67;1.67;;;24.40;78.30;24.80;101072.00;;;;4996866;28;93061;-67
2022/06/12 07:15:18;;;;;;;1.98;1.83;;;24.40;78.50;24.80;101079.00;;;;4986873;28;92858;-66
2022/06/12 07:17:45;;;;;;;3.33;1.40;;;24.50;78.70;24.90;101080.00;;;;5006021;28;93127;-68
2022/06/12 07:20:15;;;;;;;1.73;1.40;;;24.50;78.40;24.90;101078.00;;;;5000108;28;92879;-67
2022/06/12 07:22:40;;;;;;;3.95;1.30;;;24.60;78.20;24.90;101082.00;;;;4986909;28;97939;-65
2022/06/12 07:25:08;;;;;;;1.65;1.40;;;24.60;77.80;24.80;101081.00;;;;5003155;28;109492;-65
2022/06/12 07:27:34;;;;;;;1.38;1.27;;;24.60;77.90;24.80;101073.00;;;;5000805;28;96374;-66
2022/06/12 07:30:00;;;;;;;1.45;1.33;;;24.60;78.00;24.90;101075.00;;;;4972518;28;92838;-65
2022/06/12 07:32:27;;;;;;;2.10;1.63;;;24.60;78.10;24.90;101070.00;;;;5002290;28;122548;-65
2022/06/12 07:34:53;;;;;;;2.42;1.95;;;24.60;78.20;25.00;101070.00;;;;4999355;28;92404;-67
2022/06/12 07:37:19;;;;;;;2.10;1.55;;;24.70;78.50;25.20;101072.00;;;;5006029;28;92870;-66
2022/06/12 07:39:51;;;;;;;1.95;1.70;;;24.80;78.20;25.30;101066.00;;;;5000424;28;114817;-66
2022/06/12 07:42:17;;;;;;;1.73;1.30;;;25.00;77.40;25.50;101069.00;;;;4979718;28;121349;-67
2022/06/12 07:44:43;;;;;;;1.33;1.23;;;25.10;76.90;25.70;101074.00;;;;5004298;28;97350;-66
2022/06/12 07:47:09;;;;;;;1.35;1.27;;;25.30;76.40;25.90;101059.00;;;;5005525;28;92357;-66
2022/06/12 07:49:35;;;;;;;1.90;1.77;;;25.50;75.90;26.10;101060.00;;;;4978325;28;93586;-66
2022/06/12 07:52:06;;;;;;;2.45;1.92;;;25.70;75.10;26.40;101068.00;;;;5004234;28;93602;-66
2022/06/12 07:54:33;;;;;;;1.95;1.40;;;26.00;75.10;26.60;101067.00;;;;4982848;28;92594;-67
2022/06/12 07:57:00;;;;;;;1.35;1.25;;;26.30;74.40;27.00;101059.00;;;;4987420;28;92965;-66
2022/06/12 07:59:26;;;;;;;1.48;1.38;;;26.50;72.50;27.30;101059.00;;;;5001583;28;93580;-68
2022/06/12 08:01:53;;;;;;;1.70;1.60;;;26.90;71.30;27.70;101056.00;;;;5000534;28;93766;-68
2022/06/12 08:04:20;;;;;;;1.50;1.30;;;27.30;70.00;28.00;101057.00;;;;4998225;28;92461;-69
2022/06/12 08:06:46;;;;;;;1.52;1.42;;;27.60;68.40;28.30;101059.00;;;;4986684;28;92826;-69
2022/06/12 08:09:17;;;;;;;2.15;1.95;;;27.90;66.80;28.60;101051.00;;;;4985138;28;92051;-68
2022/06/12 08:11:46;;;;;;;1.40;1.15;;;28.20;64.60;28.80;101044.00;;;;4998597;28;93086;-69
2022/06/12 08:14:15;;;;;;;1.20;1.10;;;28.40;62.40;29.00;101048.00;;;;5006136;28;92605;-69
2022/06/12 08:16:41;;;;;;;2.20;1.55;;;28.60;60.90;29.10;101040.00;;;;5004048;28;92976;-69
2022/06/12 08:22:44;;;;;;;2.63;1.60;;;28.80;59.80;29.30;101038.00;;;;4977156;28;92488;-69
2022/06/12 08:25:10;;;;;;;1.23;1.05;;;29.00;58.90;29.50;101043.00;;;;4997530;28;109842;-69
2022/06/12 08:27:36;;;;;;;11.63;2.25;;;29.10;58.40;29.80;101035.00;;;;4992399;28;108534;-69
2022/06/12 08:30:05;;;;;;;1.92;1.58;;;29.40;57.70;30.00;101040.00;;;;4997763;28;122221;-69
2022/06/12 08:32:31;;;;;;;2.00;0.90;;;29.60;56.70;30.00;101033.00;;;;4998428;28;112850;-69
2022/06/12 08:35:09;;;;;;;0.98;0.98;;;29.70;50.20;29.70;101029.00;;;;4998386;28;91750;-71
2022/06/12 08:37:37;;;;;;;1.05;0.98;;;29.50;50.80;29.60;101028.00;;;;4979507;28;92364;-72
2022/06/12 08:40:26;;;;;;;2.60;0.90;;;29.40;50.60;29.60;101026.00;;;;4982138;28;93151;-70
2022/06/12 08:43:11;;;;;;;1.58;0.75;;;29.30;50.50;29.70;101023.00;;;;4980803;28;93592;-72
2022/06/12 08:45:48;;;;;;;1.08;0.80;;;29.40;50.70;29.80;101019.00;;;;4981721;28;92463;-71
2022/06/12 08:48:40;;;;;;;1.25;1.00;;;29.50;50.30;29.70;101022.00;;;;4976561;28;92485;-70
2022/06/12 08:51:24;;;;;;;2.10;1.17;;;29.50;49.10;29.60;101019.00;;;;4983419;28;115101;-71
2022/06/12 08:54:03;;;;;;;0.75;0.75;;;29.40;48.80;29.50;101009.00;;;;5002605;28;93635;-69
2022/06/12 08:56:40;;;;;;;1.67;1.30;;;29.30;48.60;29.50;101008.00;;;;4984410;28;92005;-72
2022/06/12 08:59:24;;;;;;;2.10;1.02;;;29.30;49.60;29.70;101013.00;;;;5013012;28;92894;-71
2022/06/12 09:01:49;;;;;;;1.10;1.00;;;29.40;49.40;29.80;101007.00;;;;5021387;28;113161;-70
2022/06/12 09:04:20;;;;;;;2.38;1.48;;;29.50;49.00;30.00;101007.00;;;;4985759;28;121138;-69
2022/06/12 09:07:16;;;;;;;1.00;0.90;;;29.70;49.10;30.00;101011.00;;;;4983221;28;92653;-70
2022/06/12 09:09:54;;;;;;;2.55;1.05;;;29.80;48.90;30.10;101017.00;;;;4995623;28;99995;-70
2022/06/12 09:12:30;;;;;;;3.45;1.35;;;29.80;49.20;30.20;101019.00;;;;4999141;28;94272;-69
2022/06/12 09:15:28;;;;;;;1.77;1.33;;;29.90;49.20;30.30;101012.00;;;;4988423;28;112692;-70
2022/06/12 09:18:02;;;;;;;1.52;1.10;;;30.00;49.00;30.30;101000.00;;;;4977098;28;102767;-69
2022/06/12 09:20:43;;;;;;;1.27;1.00;;;30.00;49.10;30.50;100989.00;;;;4989106;28;92600;-72
2022/06/12 09:23:19;;;;;;;1.15;0.88;;;30.10;49.30;30.60;100997.00;;;;4981206;28;93764;-70
2022/06/12 09:26:06;;;;;;;1.00;0.70;;;30.30;47.80;30.60;100997.00;;;;4973423;28;95069;-70
2022/06/12 09:28:53;;;;;;;0.93;0.90;;;30.30;47.80;30.70;100995.00;;;;5006786;28;101110;-70
2022/06/12 09:31:24;;;;;;;1.00;0.85;;;30.30;47.90;30.60;100989.00;;;;4963151;28;91933;-72
2022/06/12 09:34:26;;;;;;;1.10;0.57;;;30.30;46.30;30.50;100991.00;;;;4979931;28;122032;-71
2022/06/12 09:40:16;;;;;;;3.65;1.05;;;30.20;46.20;30.50;100986.00;;;;4973511;28;92588;-71
2022/06/12 09:42:58;;;;;;;1.15;0.90;;;30.20;45.70;30.40;100989.00;;;;4960621;28;92315;-72
2022/06/12 09:45:36;;;;;;;0.98;0.90;;;30.10;46.10;30.50;100973.00;;;;4979204;28;93365;-70
2022/06/12 09:48:49;;;;;;;0.70;0.70;;;30.10;45.80;30.50;100984.00;;;;4966862;28;110165;-72
2022/06/12 09:51:42;;;;;;;1.98;0.95;;;30.10;45.80;30.60;100979.00;;;;4944942;28;92267;-69
2022/06/12 09:54:53;;;;;;;2.17;0.98;;;30.30;45.80;30.70;100979.00;;;;4981508;28;92917;-71
2022/06/12 09:57:38;;;;;;;1.25;0.90;;;30.40;46.00;30.90;100975.00;;;;4973812;28;91950;-71
2022/06/12 10:00:07;;;;;;;1.13;1.00;;;30.50;45.70;31.00;100969.00;;;;4957480;28;93708;-72
2022/06/12 10:02:56;;;;;;;4.13;1.05;;;30.60;45.40;31.20;100973.00;;;;4986847;28;92196;-70
2022/06/12 10:05:51;;;;;;;0.90;0.70;;;30.70;45.60;31.40;100970.00;;;;4968775;28;94571;-71
2022/06/12 10:08:22;;;;;;;0.95;0.88;;;30.90;44.80;31.50;100963.00;;;;4964302;28;95443;-72
2022/06/12 10:11:15;;;;;;;1.08;0.98;;;31.00;45.20;31.90;100968.00;;;;4960796;28;114144;-72
2022/06/12 10:13:55;;;;;;;2.25;1.42;;;31.20;45.40;32.20;100956.00;;;;4962243;28;92696;-71
2022/06/12 10:16:36;;;;;;;2.25;1.25;;;31.60;45.40;32.20;100954.00;;;;4973876;28;92608;-70
2022/06/12 10:19:11;;;;;;;5.07;1.52;;;31.70;43.80;32.00;100955.00;;;;4978919;28;92613;-70
2022/06/12 10:21:41;;;;;;;1.63;1.30;;;31.60;43.20;31.90;100969.00;;;;4987215;28;92930;-73
2022/06/12 10:24:09;;;;;;;3.70;1.08;;;31.50;44.30;32.10;100963.00;;;;4960627;28;93062;-70
2022/06/12 10:26:35;;;;;;;2.25;1.02;;;31.60;44.70;32.40;100964.00;;;;4975004;28;93298;-70
2022/06/12 10:29:11;;;;;;;1.02;0.80;;;31.80;43.80;32.40;100964.00;;;;4984241;28;93471;-70
2022/06/12 10:31:58;;;;;;;2.05;1.05;;;31.90;43.50;32.50;100959.00;;;;5017170;28;93870;-72
2022/06/12 10:34:28;;;;;;;3.83;0.80;;;32.00;43.00;32.70;100959.00;;;;4971850;28;92593;-70
2022/06/12 10:36:56;;;;;;;1.05;0.95;;;32.10;43.20;32.90;100964.00;;;;5000409;28;92842;-72
2022/06/12 10:39:25;;;;;;;1.45;0.80;;;32.30;43.20;33.00;100980.00;;;;4994317;28;93911;-70
2022/06/12 10:42:04;;;;;;;0.75;0.75;;;32.40;42.80;32.70;100976.00;;;;5002627;28;93767;-71
2022/06/12 10:44:44;;;;;;;1.25;0.93;;;32.20;41.90;32.40;100968.00;;;;4981105;28;92873;-70
2022/06/12 10:47:26;;;;;;;3.10;0.63;;;32.00;41.90;32.20;100961.00;;;;5000743;28;92795;-72
2022/06/12 10:50:28;;;;;;;0.50;0.50;;;31.80;41.70;32.10;100978.00;;;;4998049;28;91773;-71
2022/06/12 10:53:07;;;;;;;0.60;0.60;;;31.70;41.70;32.00;100966.00;;;;4986503;28;94259;-71
2022/06/12 10:56:00;;;;;;;1.25;1.17;;;31.60;41.80;32.10;100970.00;;;;5005842;28;92596;-71
2022/06/12 10:59:09;;;;;;;1.23;1.13;;;31.60;42.20;32.40;100969.00;;;;4997485;28;93368;-70
2022/06/12 11:02:15;;;;;;;1.13;1.02;;;31.80;42.80;32.90;100962.00;;;;5011607;28;92641;-71
2022/06/12 11:05:30;;;;;;;1.17;0.80;;;32.20;43.00;33.20;100955.00;;;;4987390;28;94503;-70
2022/06/12 11:08:25;;;;;;;1.27;1.17;;;32.50;42.10;33.50;100961.00;;;;4994145;28;92323;-72
2022/06/12 11:11:05;;;;;;;0.80;0.80;;;32.80;42.40;33.80;100963.00;;;;4998392;28;92482;-72
2022/06/12 11:14:02;;;;;;;2.63;1.63;;;33.10;42.20;33.90;100947.00;;;;4974133;28;92974;-70
2022/06/12 11:16:56;;;;;;;1.38;1.17;;;33.20;41.90;34.00;100947.00;;;;5004783;28;93763;-72
2022/06/12 11:20:04;;;;;;;2.45;1.33;;;33.40;41.50;34.00;100956.00;;;;4982057;28;92337;-72
2022/06/12 11:23:11;;;;;;;1.23;1.13;;;33.50;41.30;33.80;100942.00;;;;5012077;28;92648;-70
2022/06/12 11:26:10;;;;;;;1.23;0.95;;;33.40;40.70;34.00;100948.00;;;;5017322;28;92688;-73
2022/06/12 11:28:58;;;;;;;1.83;1.20;;;33.40;40.60;34.00;100945.00;;;;4995373;28;93843;-70
2022/06/12 11:31:48;;;;;;;0.80;0.80;;;33.50;40.30;34.00;100938.00;;;;4980630;28;95821;-71
2022/06/12 11:34:48;;;;;;;1.95;1.55;;;33.50;40.80;33.80;100945.00;;;;4965512;28;92957;-70
2022/06/12 11:37:53;;;;;;;2.97;1.45;;;33.40;40.10;33.50;100951.00;;;;4958987;28;115241;-70
2022/06/12 11:40:50;;;;;;;1.60;1.00;;;33.20;40.40;33.40;100947.00;;;;4965098;28;95350;-70
2022/06/12 11:43:44;;;;;;;1.58;1.48;;;33.00;41.00;33.30;100935.00;;;;4964245;28;92586;-70
2022/06/12 11:46:27;;;;;;;2.95;1.08;;;32.90;40.80;33.40;100938.00;;;;4958912;28;100263;-71
2022/06/12 11:49:10;;;;;;;2.25;1.35;;;32.90;41.00;33.50;100925.00;;;;4957683;28;100978;-70